createdAt,value
2018-12-09T00:02:18.799Z,8.50
2018-12-09T00:04:51.200Z,8.40
2018-12-09T00:07:21.448Z,8.40
2018-12-09T00:09:54.636Z,8.40
2018-12-09T00:12:27.516Z,8.50
2018-12-09T00:15:00.320Z,8.50
2018-12-09T00:17:30.480Z,8.40
2018-12-09T00:20:04.837Z,8.40
2018-12-09T00:22:34.976Z,8.40
2018-12-09T00:25:08.295Z,8.60
2018-12-09T00:27:38.583Z,8.60
2018-12-09T00:30:07.539Z,8.60
2018-12-09T00:32:38.232Z,8.50
2018-12-09T00:35:11.506Z,8.50
2018-12-09T00:37:44.256Z,8.50
2018-12-09T00:40:17.529Z,8.40
2018-12-09T00:42:47.927Z,8.30
2018-12-09T00:45:18.416Z,8.40
2018-12-09T00:47:51.501Z,8.40
2018-12-09T00:50:21.503Z,8.40
2018-12-09T00:52:48.349Z,8.30
2018-12-09T00:55:15.192Z,8.40
2018-12-09T00:57:48.140Z,8.40
2018-12-09T01:00:21.005Z,8.50
2018-12-09T01:02:53.576Z,8.40
2018-12-09T01:05:26.524Z,8.50
2018-12-09T01:07:58.916Z,8.50
2018-12-09T01:10:31.708Z,8.70
2018-12-09T01:13:04.568Z,8.90
2018-12-09T01:15:31.408Z,8.90
2018-12-09T01:18:00.080Z,8.80
2018-12-09T01:20:32.403Z,8.80
2018-12-09T01:23:05.207Z,8.90
2018-12-09T01:25:38.053Z,8.90
2018-12-09T01:28:04.911Z,8.80
2018-12-09T01:33:06.017Z,8.80
2018-12-09T01:35:34.564Z,8.70
2018-12-09T01:38:07.528Z,8.70
2018-12-09T01:40:43.407Z,8.60
2018-12-09T01:43:13.872Z,8.50
2018-12-09T01:45:46.975Z,8.50
2018-12-09T01:48:19.856Z,8.50
2018-12-09T01:50:52.592Z,8.40
2018-12-09T01:54:28.218Z,8.40
2018-12-09T01:56:58.337Z,8.40
2018-12-09T01:59:32.752Z,8.40
2018-12-09T02:02:03.327Z,8.40
2018-12-09T02:04:36.429Z,8.50
2018-12-09T02:07:09.356Z,8.50
2018-12-09T02:09:42.227Z,8.50
2018-12-09T02:12:15.194Z,8.50
2018-12-09T02:14:47.992Z,8.50
2018-12-09T02:17:16.232Z,8.50
2018-12-09T02:19:43.100Z,8.40
2018-12-09T02:22:18.868Z,8.30
2018-12-09T02:24:52.120Z,8.30
2018-12-09T02:27:24.724Z,8.20
2018-12-09T02:29:55.020Z,8.10
2018-12-09T02:32:31.176Z,8.20
2018-12-09T02:35:01.687Z,8.20
2018-12-09T02:37:34.724Z,8.00
2018-12-09T02:40:05.169Z,7.90
2018-12-09T02:42:35.517Z,7.90
2018-12-09T02:45:05.524Z,7.90
2018-12-09T02:47:38.682Z,8.00
2018-12-09T02:50:12.391Z,7.90
2018-12-09T02:52:45.236Z,7.70
2018-12-09T02:55:15.451Z,7.70
2018-12-09T02:57:46.288Z,7.80
2018-12-09T03:00:14.507Z,7.70
2018-12-09T03:02:47.858Z,7.60
2018-12-09T03:05:20.743Z,7.50
2018-12-09T03:07:53.341Z,7.40
2018-12-09T03:10:23.711Z,7.40
2018-12-09T03:12:56.168Z,7.30
2018-12-09T03:15:26.531Z,7.30
2018-12-09T03:17:59.921Z,7.20
2018-12-09T03:20:32.508Z,7.20
2018-12-09T03:23:05.400Z,7.10
2018-12-09T03:25:38.237Z,7.10
2018-12-09T03:28:08.504Z,7.20
2018-12-09T03:30:41.857Z,7.30
2018-12-09T03:33:12.240Z,7.20
2018-12-09T03:35:43.061Z,7.30
2018-12-09T03:38:15.544Z,7.30
2018-12-09T03:40:46.477Z,7.40
2018-12-09T03:43:16.967Z,7.40
2018-12-09T03:45:50.033Z,7.50
2018-12-09T03:48:23.048Z,7.50
2018-12-09T03:50:55.958Z,7.60
2018-12-09T03:53:28.530Z,7.60
2018-12-09T03:55:56.760Z,7.60
2018-12-09T03:58:29.268Z,7.70
2018-12-09T04:01:01.954Z,7.70
2018-12-09T04:03:30.227Z,7.80
2018-12-09T04:06:00.988Z,7.80
2018-12-09T04:08:29.882Z,7.80
2018-12-09T04:11:02.379Z,7.90
2018-12-09T04:13:35.161Z,7.90
2018-12-09T04:16:08.064Z,7.80
2018-12-09T04:18:41.414Z,7.80
2018-12-09T04:21:09.496Z,7.80
2018-12-09T04:23:39.406Z,7.80
2018-12-09T04:26:11.931Z,7.80
2018-12-09T04:28:44.925Z,7.80
2018-12-09T04:31:13.211Z,7.80
2018-12-09T04:33:43.900Z,7.80
2018-12-09T04:36:14.718Z,7.70
2018-12-09T04:38:47.996Z,7.60
2018-12-09T04:41:20.885Z,7.60
2018-12-09T04:43:51.206Z,7.60
2018-12-09T04:46:21.975Z,7.60
2018-12-09T04:48:50.742Z,7.50
2018-12-09T04:51:19.551Z,7.50
2018-12-09T04:53:52.417Z,7.50
2018-12-09T04:56:24.997Z,7.50
2018-12-09T04:58:57.946Z,7.40
2018-12-09T05:01:28.347Z,7.50
2018-12-09T05:03:59.135Z,7.50
2018-12-09T05:06:29.953Z,7.50
2018-12-09T05:09:03.536Z,7.50
2018-12-09T05:11:33.843Z,7.60
2018-12-09T05:14:09.105Z,7.60
2018-12-09T05:16:41.968Z,7.40
2018-12-09T05:19:14.524Z,7.20
2018-12-09T05:21:44.852Z,7.10
2018-12-09T05:24:17.895Z,7.00
2018-12-09T05:26:50.700Z,7.00
2018-12-09T05:29:18.812Z,6.90
2018-12-09T05:31:51.712Z,6.90
2018-12-09T05:34:21.792Z,6.90
2018-12-09T05:36:50.568Z,6.80
2018-12-09T05:39:18.736Z,6.90
2018-12-09T05:41:49.056Z,6.90
2018-12-09T05:44:20.048Z,7.00
2018-12-09T05:46:50.689Z,7.10
2018-12-09T05:54:24.163Z,7.10
2018-12-09T05:56:57.649Z,7.20
2018-12-09T05:59:26.022Z,7.20
2018-12-09T06:01:58.504Z,7.20
2018-12-09T06:04:31.851Z,7.30
2018-12-09T06:07:00.004Z,7.30
2018-12-09T06:09:32.425Z,7.30
2018-12-09T06:12:02.723Z,7.40
2018-12-09T06:14:35.808Z,7.40
2018-12-09T06:17:02.664Z,7.40
2018-12-09T06:19:29.509Z,7.40
2018-12-09T06:21:57.728Z,7.40
2018-12-09T06:24:30.190Z,7.40
2018-12-09T06:27:02.852Z,7.50
2018-12-09T06:29:35.451Z,7.50
2018-12-09T06:32:06.196Z,7.50
2018-12-09T06:34:39.158Z,7.50
2018-12-09T06:37:09.363Z,7.40
2018-12-09T06:39:40.108Z,7.50
2018-12-09T06:42:08.785Z,7.60
2018-12-09T06:44:39.296Z,7.60
2018-12-09T06:47:06.084Z,7.70
2018-12-09T06:49:32.995Z,7.60
2018-12-09T06:52:03.320Z,7.60
2018-12-09T06:54:36.456Z,7.70
2018-12-09T06:57:07.435Z,7.70
2018-12-09T06:59:40.744Z,7.60
2018-12-09T07:02:13.371Z,7.60
2018-12-09T07:04:43.670Z,7.70
2018-12-09T07:07:14.228Z,7.70
2018-12-09T07:09:45.053Z,7.80
2018-12-09T07:12:18.334Z,7.80
2018-12-09T07:14:50.919Z,7.80
2018-12-09T07:17:18.884Z,7.80
2018-12-09T07:19:52.156Z,7.80
2018-12-09T07:22:25.787Z,7.80
2018-12-09T07:24:55.971Z,7.80
2018-12-09T07:27:28.540Z,7.90
2018-12-09T07:30:02.507Z,7.90
2018-12-09T07:32:32.084Z,7.90
2018-12-09T07:35:04.563Z,7.90
2018-12-09T07:37:34.935Z,8.00
2018-12-09T07:40:04.367Z,7.90
2018-12-09T07:42:36.932Z,7.90
2018-12-09T07:52:32.460Z,7.90
2018-12-09T07:57:30.827Z,7.90
2018-12-09T08:00:00.716Z,7.90
2018-12-09T08:09:59.417Z,8.00
2018-12-09T08:12:29.375Z,8.00
2018-12-09T08:14:59.271Z,8.00
2018-12-09T08:24:56.288Z,8.10
2018-12-09T08:27:23.099Z,8.10
2018-12-09T08:34:50.659Z,8.00
2018-12-09T08:39:51.932Z,8.10
2018-12-09T08:42:24.405Z,8.10
2018-12-09T08:52:16.157Z,8.20
2018-12-09T08:57:11.287Z,8.20
2018-12-09T09:04:41.342Z,8.30
2018-12-09T09:12:14.420Z,8.30
2018-12-09T09:17:15.917Z,8.40
2018-12-09T09:24:42.906Z,8.50
2018-12-09T09:27:16.381Z,8.40
2018-12-09T09:29:44.720Z,8.40
2018-12-09T09:32:17.172Z,8.40
2018-12-09T09:37:17.267Z,8.40
2018-12-09T09:42:19.416Z,8.50
2018-12-09T09:44:47.600Z,8.60
2018-12-09T09:54:48.980Z,8.70
2018-12-09T09:57:21.760Z,8.70
2018-12-09T09:59:52.022Z,8.80
2018-12-09T10:02:24.452Z,8.80
2018-12-09T10:04:54.687Z,8.70
2018-12-09T10:12:25.904Z,8.70
2018-12-09T10:17:24.459Z,8.80
2018-12-09T10:39:38.699Z,9.20
2018-12-09T10:42:09.165Z,9.20
2018-12-09T10:44:42.284Z,9.10
2018-12-09T10:57:03.444Z,8.80
2018-12-09T10:59:30.253Z,8.80
2018-12-09T11:09:17.781Z,8.90
2018-12-09T11:14:15.275Z,8.80
2018-12-09T11:16:52.335Z,8.70
2018-12-09T11:19:19.123Z,8.70
2018-12-09T11:21:49.815Z,8.70
2018-12-09T11:26:50.670Z,8.80
2018-12-09T11:31:49.423Z,8.80
2018-12-09T11:34:22.203Z,8.90
2018-12-09T11:36:55.063Z,8.90
2018-12-09T11:46:50.072Z,9.40
2018-12-09T11:49:23.313Z,9.60
2018-12-09T11:54:25.187Z,9.70
2018-12-09T11:56:55.947Z,10.10
2018-12-09T12:12:01.286Z,9.80
2018-12-09T12:14:33.744Z,9.80
2018-12-09T12:17:06.392Z,9.70
2018-12-09T12:19:33.191Z,9.50
2018-12-09T12:34:32.009Z,9.20
2018-12-09T12:37:04.789Z,9.30
2018-12-09T12:42:04.612Z,9.70
2018-12-09T12:59:22.944Z,9.40
2018-12-09T13:06:51.920Z,9.40
2018-12-09T13:09:24.805Z,9.40
2018-12-09T13:11:57.119Z,9.40
2018-12-09T13:14:31.979Z,9.30
2018-12-09T13:17:04.890Z,9.30
2018-12-09T13:19:35.211Z,9.20
2018-12-09T13:22:03.660Z,8.90
2018-12-09T13:24:36.172Z,8.70
2018-12-09T13:27:06.643Z,8.20
2018-12-09T13:29:39.987Z,7.30
2018-12-09T13:32:12.799Z,6.70
2018-12-09T13:34:42.986Z,6.50
2018-12-09T13:37:13.742Z,6.40
2018-12-09T13:39:43.603Z,6.40
2018-12-09T13:42:16.867Z,6.40
2018-12-09T13:44:53.720Z,6.40
2018-12-09T13:47:28.584Z,6.40
2018-12-09T13:49:58.784Z,6.40
2018-12-09T13:52:31.251Z,6.40
2018-12-09T13:55:03.933Z,6.40
2018-12-09T13:57:33.847Z,6.40
2018-12-09T14:00:07.079Z,6.40
2018-12-09T14:02:39.739Z,6.50
2018-12-09T14:05:06.549Z,6.50
2018-12-09T14:07:37.147Z,6.50
2018-12-09T14:10:10.415Z,6.50
2018-12-09T14:15:09.211Z,6.50
2018-12-09T14:17:36.011Z,6.60
2018-12-09T14:20:08.864Z,6.70
2018-12-09T14:22:41.420Z,6.70
2018-12-09T14:25:11.700Z,6.70
2018-12-09T14:27:44.803Z,6.80
2018-12-09T14:30:15.076Z,6.80
2018-12-09T14:32:45.947Z,6.80
2018-12-09T14:35:15.917Z,6.80
2018-12-09T14:37:50.264Z,6.80
2018-12-09T14:40:20.672Z,6.80
2018-12-09T14:42:53.063Z,6.80
2018-12-09T14:45:25.719Z,6.90
2018-12-09T14:47:56.036Z,6.90
2018-12-09T14:50:26.652Z,6.90
2018-12-09T14:53:00.104Z,7.00
2018-12-09T14:55:27.019Z,7.00
2018-12-09T14:57:57.417Z,7.00
2018-12-09T15:00:29.816Z,7.00
2018-12-09T15:03:02.568Z,7.00
2018-12-09T15:05:33.351Z,7.00
2018-12-09T15:08:04.099Z,7.00
2018-12-09T15:10:34.190Z,7.00
2018-12-09T15:13:01.040Z,7.10
2018-12-09T15:15:30.991Z,7.10
2018-12-09T15:17:59.700Z,7.10
2018-12-09T15:20:32.191Z,7.10
2018-12-09T15:23:02.592Z,7.10
2018-12-09T15:25:35.749Z,7.10
2018-12-09T15:28:05.804Z,7.20
2018-12-09T15:30:39.144Z,7.20
2018-12-09T15:33:09.220Z,7.20
2018-12-09T15:35:39.963Z,7.20
2018-12-09T15:38:12.336Z,7.20
2018-12-09T15:40:45.044Z,7.30
2018-12-09T15:43:15.028Z,7.30
2018-12-09T15:45:45.618Z,7.30
2018-12-09T15:48:17.975Z,7.40
2018-12-09T15:50:50.895Z,7.30
2018-12-09T15:53:20.867Z,7.30
2018-12-09T15:55:49.679Z,7.30
2018-12-09T15:58:16.475Z,7.30
2018-12-09T16:00:50.591Z,7.30
2018-12-09T16:03:23.915Z,7.30
2018-12-09T16:05:56.846Z,7.20
2018-12-09T16:08:27.143Z,7.20
2018-12-09T16:10:57.075Z,7.20
2018-12-09T16:13:27.644Z,7.20
2018-12-09T16:16:00.079Z,7.10
2018-12-09T16:18:30.473Z,7.10
2018-12-09T16:21:01.878Z,7.10
2018-12-09T16:23:33.222Z,7.00
2018-12-09T16:26:06.263Z,6.90
2018-12-09T16:28:39.060Z,6.90
2018-12-09T16:31:11.727Z,6.90
2018-12-09T16:33:44.423Z,6.90
2018-12-09T16:36:17.672Z,6.90
2018-12-09T16:38:50.445Z,6.90
2018-12-09T16:41:20.445Z,6.80
2018-12-09T16:43:52.851Z,6.80
2018-12-09T16:46:23.136Z,7.00
2018-12-09T16:48:53.048Z,7.00
2018-12-09T16:51:21.878Z,7.10
2018-12-09T16:53:56.971Z,7.10
2018-12-09T16:56:29.694Z,7.10
2018-12-09T16:59:02.363Z,6.90
2018-12-09T17:01:34.737Z,6.90
2018-12-09T17:04:07.456Z,6.90
2018-12-09T17:06:37.802Z,7.00
2018-12-09T17:09:07.727Z,7.10
2018-12-09T17:11:38.227Z,7.00
2018-12-09T17:14:08.847Z,6.90
2018-12-09T17:16:39.443Z,6.90
2018-12-09T17:19:12.393Z,6.90
2018-12-09T17:21:45.257Z,6.90
2018-12-09T17:24:18.024Z,6.90
2018-12-09T17:26:50.783Z,7.00
2018-12-09T17:29:23.624Z,7.00
2018-12-09T17:31:54.135Z,7.20
2018-12-09T17:34:26.588Z,7.20
2018-12-09T17:36:59.253Z,7.20
2018-12-09T17:39:32.257Z,7.20
2018-12-09T17:42:03.156Z,7.20
2018-12-09T17:44:35.792Z,7.20
2018-12-09T17:47:08.434Z,7.20
2018-12-09T17:49:38.680Z,7.20
2018-12-09T17:52:11.949Z,7.30
2018-12-09T17:54:42.481Z,7.20
2018-12-09T17:57:14.948Z,7.20
2018-12-09T17:59:47.889Z,7.20
2018-12-09T18:02:20.656Z,7.20
2018-12-09T18:04:50.878Z,7.20
2018-12-09T18:07:21.697Z,7.20
2018-12-09T18:09:52.537Z,7.20
2018-12-09T18:12:19.365Z,7.20
2018-12-09T18:14:50.185Z,7.20
2018-12-09T18:17:23.518Z,7.20
2018-12-09T18:19:56.204Z,7.30
2018-12-09T18:22:29.020Z,7.20
2018-12-09T18:25:03.652Z,7.20
2018-12-09T18:27:34.170Z,7.30
2018-12-09T18:30:07.561Z,7.40
2018-12-09T18:32:40.409Z,7.40
2018-12-09T18:35:13.188Z,7.40
2018-12-09T18:37:46.596Z,7.50
2018-12-09T18:40:19.757Z,7.50
2018-12-09T18:42:52.877Z,7.60
2018-12-09T18:45:23.386Z,7.60
2018-12-09T18:47:52.023Z,7.50
2018-12-09T18:50:25.829Z,7.60
2018-12-09T18:52:56.951Z,7.60
2018-12-09T18:55:27.825Z,7.60
2018-12-09T18:57:58.619Z,7.60
2018-12-09T19:00:32.164Z,7.60
2018-12-09T19:03:05.015Z,7.50
2018-12-09T19:05:37.822Z,7.50
2018-12-09T19:08:10.608Z,7.30
2018-12-09T19:10:45.352Z,7.30
2018-12-09T19:13:13.774Z,7.20
2018-12-09T19:15:46.951Z,7.10
2018-12-09T19:18:20.603Z,7.00
2018-12-09T19:20:52.534Z,6.90
2018-12-09T19:23:23.017Z,6.90
2018-12-09T19:25:57.612Z,7.00
2018-12-09T19:28:31.382Z,6.90
2018-12-09T19:31:06.586Z,6.90
2018-12-09T19:36:22.992Z,7.00
2018-12-09T19:38:54.775Z,7.00
2018-12-09T19:41:28.519Z,7.10
2018-12-09T19:44:03.224Z,7.10
2018-12-09T19:46:38.205Z,7.10
2018-12-09T19:49:19.371Z,7.10
2018-12-09T19:51:56.251Z,7.10
2018-12-09T19:54:29.406Z,7.00
2018-12-09T19:56:57.817Z,7.10
2018-12-09T19:59:34.975Z,7.00
2018-12-09T20:02:11.288Z,7.00
2018-12-09T20:04:46.962Z,7.10
2018-12-09T20:07:22.695Z,7.10
2018-12-09T20:09:59.016Z,7.20
2018-12-09T20:12:34.420Z,7.20
2018-12-09T20:15:08.135Z,7.20
2018-12-09T20:17:44.052Z,7.20
2018-12-09T20:20:18.513Z,7.10
2018-12-09T20:22:51.590Z,7.10
2018-12-09T20:25:25.458Z,7.00
2018-12-09T20:28:00.166Z,7.00
2018-12-09T20:30:34.592Z,6.90
2018-12-09T20:33:06.792Z,6.90
2018-12-09T20:35:40.757Z,6.90
2018-12-09T20:38:14.827Z,6.90
2018-12-09T20:40:58.593Z,6.90
2018-12-09T20:43:31.064Z,6.80
2018-12-09T20:46:01.676Z,6.80
2018-12-09T20:48:36.300Z,6.70
2018-12-09T20:51:10.424Z,6.60
2018-12-09T20:53:44.131Z,6.60
2018-12-09T20:56:15.394Z,6.60
2018-12-09T20:58:48.437Z,6.50
2018-12-09T21:01:21.328Z,6.40
2018-12-09T21:03:52.401Z,6.40
2018-12-09T21:06:25.851Z,6.30
2018-12-09T21:13:59.147Z,6.20
2018-12-09T21:16:32.147Z,6.20
2018-12-09T21:19:04.922Z,6.20
2018-12-09T21:21:35.335Z,6.10
2018-12-09T21:24:08.196Z,6.10
2018-12-09T21:26:40.848Z,6.00
2018-12-09T21:29:11.124Z,6.00
2018-12-09T21:31:43.504Z,5.90
2018-12-09T21:34:14.291Z,6.10
2018-12-09T21:36:44.877Z,6.10
2018-12-09T21:39:17.963Z,6.20
2018-12-09T21:41:50.639Z,6.20
2018-12-09T21:44:23.392Z,6.20
2018-12-09T21:46:56.245Z,6.20
2018-12-09T21:49:29.014Z,6.10
2018-12-09T21:52:01.871Z,6.10
2018-12-09T21:54:34.895Z,6.10
2018-12-09T21:57:07.662Z,6.10
2018-12-09T21:59:34.462Z,6.00
2018-12-09T22:02:04.812Z,6.00
2018-12-09T22:04:31.631Z,6.00
2018-12-09T22:06:58.421Z,6.00
2018-12-09T22:09:26.975Z,6.10
2018-12-09T22:11:57.984Z,6.00
2018-12-09T22:14:30.945Z,6.00
2018-12-09T22:17:01.071Z,6.00
2018-12-09T22:19:34.275Z,6.00
2018-12-09T22:22:06.851Z,6.10
2018-12-09T22:24:39.232Z,6.00
2018-12-09T22:27:11.880Z,6.00
2018-12-09T22:29:44.661Z,6.00
2018-12-09T22:32:14.936Z,6.00
2018-12-09T22:34:48.296Z,6.10
2018-12-09T22:37:21.003Z,6.10
2018-12-09T22:39:53.751Z,6.10
2018-12-09T22:42:24.497Z,6.20
2018-12-09T22:44:57.191Z,6.20
2018-12-09T22:47:29.939Z,6.20
2018-12-09T22:50:02.509Z,6.30
2018-12-09T22:52:35.412Z,6.20
2018-12-09T22:55:08.164Z,6.20
2018-12-09T22:57:40.727Z,6.20
2018-12-09T23:00:13.631Z,6.10
2018-12-09T23:02:51.951Z,6.10
2018-12-09T23:05:22.747Z,6.20
2018-12-09T23:07:54.183Z,6.10
2018-12-09T23:10:27.019Z,6.10
2018-12-09T23:12:59.716Z,6.10
2018-12-09T23:15:30.023Z,6.20
2018-12-09T23:17:57.787Z,6.20
2018-12-09T23:20:28.941Z,6.20
2018-12-09T23:22:59.387Z,6.10
2018-12-09T23:25:29.455Z,6.20
2018-12-09T23:27:58.051Z,6.10
2018-12-09T23:30:30.651Z,6.10
2018-12-09T23:33:03.987Z,6.10
2018-12-09T23:35:36.707Z,6.10
2018-12-09T23:38:09.588Z,6.10
2018-12-09T23:40:43.212Z,6.00
2018-12-09T23:43:10.088Z,6.00
2018-12-09T23:45:38.393Z,6.00
2018-12-09T23:48:05.670Z,5.90
2018-12-09T23:50:36.364Z,5.90
2018-12-09T23:53:08.804Z,5.90
2018-12-09T23:55:39.076Z,5.80
2018-12-09T23:58:12.384Z,5.70
